Terminal Aerodrome Forecast
Issued by NWS

Home | Current Version | Previous Version | Graphics & Text | Print | Product List | Glossary On
Versions: 1 2 3 4 5 6 7 8 9 10 11 12 13 14 15 16 17 18 19 20 21 22
025
FTUS43 KGRB 261230 AAA
TAFCWA
TAF AMD
KCWA 261230Z 2613/2712 15005KT 1/4SM FG VCSH OVC002
      TEMPO 2613/2615 2SM TSRA BR BKN005 OVC025CB
     FM261500 21008G15KT P6SM VCSH SCT025 BKN040
     FM261900 22007G14KT P6SM SCT040 BKN250
     FM270100 VRB03KT P6SM SCT040 BKN250
     FM270600 VRB03KT 4SM BR SCT008 BKN250
      TEMPO 2708/2712 1 1/2SM BR BKN005=

USA.gov is the U.S. government's official web portal to all federal, state and local government web resources and services.